Time;durP1;ratioP1;P1;durP2;ratioP2;P2;SDS_P1;SDS_P2;PMS_P1;PMS_P2;Temp;Humidity;BMP_temperature;BMP_pressure;BME280_temperature;BME280_humidity;BME280_pressure;Samples;Min_cycle;Max_cycle;Signal;HPM_P1;HPM_P2
2024/02/23 00:01:15;;;;;;;0.95;0.95;;;6.00;99.90;;;;;;5071776;28;20027;-50
2024/02/23 00:03:40;;;;;;;2.83;0.52;;;6.00;99.90;;;;;;5057862;28;20041;-55
2024/02/23 00:06:06;;;;;;;1.88;0.30;;;6.10;99.90;;;;;;5069573;28;20025;-53
2024/02/23 00:08:32;;;;;;;0.63;0.30;;;6.10;99.90;;;;;;5070056;28;20036;-50
2024/02/23 00:10:57;;;;;;;0.15;0.15;;;6.00;99.90;;;;;;5070489;28;20074;-51
2024/02/23 00:13:23;;;;;;;0.65;0.22;;;5.90;99.90;;;;;;5071708;28;20119;-55
2024/02/23 00:15:48;;;;;;;0.82;0.30;;;5.90;99.90;;;;;;5070886;28;20033;-51
2024/02/23 00:18:15;;;;;;;3.88;0.43;;;5.90;99.90;;;;;;5072896;28;20033;-54
2024/02/23 00:20:41;;;;;;;0.30;0.25;;;5.90;99.90;;;;;;5066204;28;20051;-52
2024/02/23 00:23:07;;;;;;;1.08;0.47;;;5.90;99.90;;;;;;5066652;28;20020;-53
2024/02/23 00:25:32;;;;;;;0.45;0.20;;;5.90;99.90;;;;;;5070291;28;20032;-53
2024/02/23 00:27:58;;;;;;;0.50;0.35;;;5.80;99.90;;;;;;5067306;28;21598;-55
2024/02/23 00:30:23;;;;;;;2.40;0.30;;;5.80;99.90;;;;;;5071794;28;20478;-53
2024/02/23 00:32:49;;;;;;;0.30;0.15;;;5.70;99.90;;;;;;5034378;28;20395;-54
2024/02/23 00:35:14;;;;;;;1.45;0.35;;;5.70;99.90;;;;;;5041832;28;20456;-54
2024/02/23 00:37:40;;;;;;;0.22;0.20;;;5.70;99.90;;;;;;5045163;28;20037;-53
2024/02/23 00:40:06;;;;;;;4.30;0.20;;;5.70;99.90;;;;;;5050737;28;20041;-54
2024/02/23 00:42:32;;;;;;;0.43;0.10;;;5.70;99.90;;;;;;5045084;28;20082;-51
2024/02/23 00:44:57;;;;;;;1.23;0.10;;;5.80;99.90;;;;;;5045292;28;20111;-51
2024/02/23 00:47:23;;;;;;;0.30;0.20;;;5.70;99.90;;;;;;5041329;28;20037;-54
2024/02/23 00:49:49;;;;;;;0.22;0.20;;;5.70;99.90;;;;;;5045853;28;20605;-53
2024/02/23 00:52:15;;;;;;;0.25;0.17;;;5.70;99.90;;;;;;5043878;28;20037;-51
2024/02/23 00:54:41;;;;;;;0.22;0.15;;;5.70;99.90;;;;;;5050490;28;20100;-53
2024/02/23 00:57:06;;;;;;;1.55;0.10;;;5.70;99.90;;;;;;5046499;28;20152;-50
2024/02/23 00:59:32;;;;;;;0.35;0.10;;;5.70;99.90;;;;;;5040943;28;20036;-52
2024/02/23 01:01:58;;;;;;;1.08;0.30;;;5.70;99.90;;;;;;5044894;28;20233;-51
2024/02/23 01:04:23;;;;;;;0.85;0.10;;;5.70;99.90;;;;;;5041365;28;20121;-55
2024/02/23 01:06:49;;;;;;;1.02;0.30;;;5.70;99.90;;;;;;5040875;28;20048;-50
2024/02/23 01:09:16;;;;;;;0.20;0.10;;;5.60;99.90;;;;;;5041032;28;20033;-54
2024/02/23 01:11:42;;;;;;;0.10;0.10;;;5.60;99.90;;;;;;5054125;28;20167;-55
2024/02/23 01:14:07;;;;;;;0.20;0.10;;;5.50;99.90;;;;;;5069158;28;20012;-52
2024/02/23 01:16:33;;;;;;;1.48;0.20;;;5.50;99.90;;;;;;5066610;28;20024;-50
2024/02/23 01:18:58;;;;;;;2.08;0.52;;;5.40;99.90;;;;;;5068382;28;20021;-50
2024/02/23 01:21:24;;;;;;;0.10;0.10;;;5.30;99.90;;;;;;5071851;28;20017;-53
2024/02/23 01:23:49;;;;;;;0.50;0.28;;;5.30;99.90;;;;;;5070364;28;20020;-51
2024/02/23 01:26:15;;;;;;;0.30;0.13;;;5.10;99.90;;;;;;5073315;28;20028;-53
2024/02/23 01:28:40;;;;;;;0.10;0.10;;;5.10;99.90;;;;;;5076084;28;20031;-54
2024/02/23 01:31:11;;;;;;;1.13;0.20;;;5.00;99.90;;;;;;5074797;28;20123;-56
2024/02/23 01:33:37;;;;;;;2.30;0.30;;;4.90;99.90;;;;;;5077317;28;20032;-54
2024/02/23 01:36:04;;;;;;;0.13;0.10;;;4.80;99.90;;;;;;5074666;28;20054;-52
2024/02/23 01:38:32;;;;;;;0.20;0.17;;;4.80;99.90;;;;;;5071313;28;20075;-50
2024/02/23 01:41:01;;;;;;;0.43;0.15;;;4.80;99.90;;;;;;5070485;28;20629;-54
2024/02/23 01:43:26;;;;;;;1.67;0.22;;;4.80;99.90;;;;;;5072463;28;20055;-52
2024/02/23 01:45:53;;;;;;;0.13;0.10;;;4.70;99.90;;;;;;5058116;28;20658;-53
2024/02/23 01:48:19;;;;;;;1.95;0.40;;;4.80;99.90;;;;;;5066886;28;20117;-52
2024/02/23 01:50:44;;;;;;;0.40;0.10;;;4.80;99.90;;;;;;5073820;28;20099;-51
2024/02/23 01:53:12;;;;;;;1.73;0.20;;;4.80;99.90;;;;;;5072431;28;20066;-51
2024/02/23 01:55:40;;;;;;;0.28;0.20;;;4.90;99.90;;;;;;5061978;28;20032;-50
2024/02/23 01:58:06;;;;;;;3.15;0.77;;;4.90;99.90;;;;;;5070329;28;20025;-56
2024/02/23 02:00:32;;;;;;;0.80;0.15;;;5.00;99.90;;;;;;5070987;28;20024;-55
2024/02/23 02:02:57;;;;;;;0.60;0.15;;;5.00;99.90;;;;;;5075011;28;20093;-55
2024/02/23 02:05:23;;;;;;;1.00;0.30;;;5.00;99.90;;;;;;5074996;28;20040;-52
2024/02/23 02:07:54;;;;;;;2.15;0.38;;;5.00;99.90;;;;;;5075407;28;20032;-54
2024/02/23 02:10:20;;;;;;;1.27;0.30;;;5.00;99.90;;;;;;5073553;28;20113;-51
2024/02/23 02:12:46;;;;;;;2.72;0.30;;;5.00;99.90;;;;;;5072677;28;20137;-50
2024/02/23 02:15:11;;;;;;;4.47;0.40;;;5.10;99.90;;;;;;5074532;28;20095;-54
2024/02/23 02:17:37;;;;;;;1.33;0.43;;;5.10;99.90;;;;;;5075275;28;20024;-51
2024/02/23 02:20:06;;;;;;;0.75;0.17;;;5.00;99.90;;;;;;5072790;28;20044;-53
2024/02/23 02:22:35;;;;;;;1.10;0.32;;;5.00;99.90;;;;;;5073644;28;20039;-50
2024/02/23 02:25:01;;;;;;;3.88;0.40;;;5.00;99.90;;;;;;5076244;28;21519;-54
2024/02/23 02:27:26;;;;;;;1.35;0.20;;;5.00;99.90;;;;;;5069678;28;20054;-51
2024/02/23 02:29:52;;;;;;;3.40;0.60;;;5.00;99.90;;;;;;5078003;28;20486;-50
2024/02/23 02:32:18;;;;;;;3.92;0.70;;;5.00;99.90;;;;;;5071350;28;20522;-53
2024/02/23 02:34:43;;;;;;;1.45;0.40;;;4.90;99.90;;;;;;5078773;28;20042;-55
2024/02/23 02:37:09;;;;;;;1.67;0.45;;;4.90;99.90;;;;;;5073587;28;20032;-55
2024/02/23 02:39:35;;;;;;;0.82;0.28;;;4.80;99.90;;;;;;5077588;28;20072;-52
2024/02/23 02:42:01;;;;;;;2.85;0.38;;;4.80;99.90;;;;;;5073204;28;20028;-50
2024/02/23 02:44:30;;;;;;;1.30;0.30;;;4.80;99.90;;;;;;5070989;28;20029;-51
2024/02/23 02:46:56;;;;;;;3.60;0.32;;;4.80;99.90;;;;;;5072235;28;20035;-51
2024/02/23 02:49:22;;;;;;;5.88;0.57;;;4.80;99.90;;;;;;5073543;28;20028;-51
2024/02/23 02:51:47;;;;;;;0.73;0.32;;;4.80;99.90;;;;;;5073829;28;20036;-55
2024/02/23 02:54:13;;;;;;;7.15;1.20;;;4.70;99.90;;;;;;5075998;28;20517;-50
2024/02/23 02:56:46;;;;;;;3.15;0.30;;;4.70;99.90;;;;;;5072952;28;20048;-53
2024/02/23 02:59:12;;;;;;;1.08;0.32;;;4.60;99.90;;;;;;5075258;28;20032;-51
2024/02/23 03:01:37;;;;;;;5.68;0.22;;;4.60;99.90;;;;;;5078411;28;20028;-51
2024/02/23 03:04:03;;;;;;;0.82;0.20;;;4.60;99.90;;;;;;5071940;28;20664;-50
2024/02/23 03:06:28;;;;;;;0.65;0.40;;;4.50;99.90;;;;;;5075430;28;20036;-53
2024/02/23 03:08:54;;;;;;;5.97;0.60;;;4.40;99.90;;;;;;5074766;28;20044;-50
2024/02/23 03:11:19;;;;;;;9.48;0.65;;;4.40;99.90;;;;;;5073820;28;20032;-54
2024/02/23 03:13:45;;;;;;;1.75;0.38;;;4.40;99.90;;;;;;5072690;28;20055;-54
2024/02/23 03:16:17;;;;;;;2.95;0.30;;;4.40;99.90;;;;;;5075052;28;20032;-51
2024/02/23 03:18:43;;;;;;;3.67;0.57;;;4.30;99.90;;;;;;5071831;28;20658;-53
2024/02/23 03:21:09;;;;;;;1.88;0.43;;;4.30;99.90;;;;;;5076165;28;20024;-51
2024/02/23 03:23:35;;;;;;;2.42;0.43;;;4.20;99.90;;;;;;5074362;28;20027;-52
2024/02/23 03:26:02;;;;;;;2.90;0.30;;;4.20;99.90;;;;;;5069454;28;20509;-50
2024/02/23 03:28:27;;;;;;;3.20;0.22;;;4.10;99.90;;;;;;5054271;28;20032;-54
2024/02/23 03:30:53;;;;;;;4.20;0.80;;;4.00;99.90;;;;;;5071274;28;20375;-57
2024/02/23 03:33:18;;;;;;;2.88;0.60;;;4.00;99.90;;;;;;5070507;28;20027;-53
2024/02/23 03:35:44;;;;;;;3.35;0.30;;;4.00;99.90;;;;;;5067742;28;20082;-54
2024/02/23 03:38:10;;;;;;;2.35;0.70;;;4.00;99.90;;;;;;5072873;28;20048;-55
2024/02/23 03:40:35;;;;;;;4.38;0.28;;;4.00;99.90;;;;;;5072183;28;20437;-51
2024/02/23 03:43:02;;;;;;;2.10;0.50;;;4.10;99.90;;;;;;5070452;28;20028;-53
2024/02/23 03:45:28;;;;;;;1.10;0.35;;;4.10;99.90;;;;;;5065364;28;20048;-53
2024/02/23 03:47:53;;;;;;;1.50;0.60;;;4.10;99.90;;;;;;5071038;28;20028;-52
2024/02/23 03:50:19;;;;;;;0.50;0.28;;;4.00;99.90;;;;;;5071078;28;20036;-53
2024/02/23 03:52:45;;;;;;;6.70;0.43;;;3.90;99.90;;;;;;5070898;28;20027;-52
2024/02/23 03:55:10;;;;;;;8.50;0.70;;;3.90;99.90;;;;;;5068496;28;20445;-50
2024/02/23 03:57:36;;;;;;;3.17;0.65;;;3.80;99.90;;;;;;5071251;28;20028;-54
2024/02/23 04:00:03;;;;;;;2.38;0.70;;;3.70;99.90;;;;;;5071187;28;20093;-51
2024/02/23 04:02:29;;;;;;;1.02;0.10;;;3.60;99.90;;;;;;5070882;28;20034;-51
2024/02/23 04:04:54;;;;;;;1.25;0.22;;;3.70;99.90;;;;;;5069490;28;20017;-54
2024/02/23 04:07:20;;;;;;;1.65;0.57;;;3.70;99.90;;;;;;5069687;28;20033;-53
2024/02/23 04:09:51;;;;;;;1.67;0.43;;;3.80;99.90;;;;;;5069866;28;20108;-55
2024/02/23 04:12:23;;;;;;;4.13;1.00;;;3.90;99.90;;;;;;5069551;28;20017;-49
2024/02/23 04:14:49;;;;;;;3.65;0.55;;;4.00;99.90;;;;;;5070515;28;20382;-51
2024/02/23 04:17:15;;;;;;;3.33;0.30;;;4.00;99.90;;;;;;5070841;28;20028;-51
2024/02/23 04:19:41;;;;;;;2.78;0.47;;;4.00;99.90;;;;;;5070947;28;20035;-53
2024/02/23 04:22:11;;;;;;;1.60;0.40;;;4.00;99.90;;;;;;5070673;28;20390;-52
2024/02/23 04:24:38;;;;;;;2.38;0.60;;;4.00;99.90;;;;;;5066780;28;20025;-54
2024/02/23 04:27:05;;;;;;;2.15;0.50;;;4.00;99.90;;;;;;5066305;28;20047;-50
2024/02/23 04:29:32;;;;;;;3.92;0.43;;;4.10;99.90;;;;;;5070905;28;20028;-53
2024/02/23 04:31:57;;;;;;;1.83;0.22;;;4.20;99.90;;;;;;5069085;28;20028;-54
2024/02/23 04:34:23;;;;;;;5.65;0.50;;;4.20;99.90;;;;;;5069752;28;20025;-54
2024/02/23 04:36:49;;;;;;;2.25;0.50;;;4.30;99.90;;;;;;5068942;28;20098;-51
2024/02/23 04:39:14;;;;;;;2.35;0.52;;;4.30;99.90;;;;;;5074023;28;20036;-50
2024/02/23 04:41:40;;;;;;;1.48;0.30;;;4.40;99.90;;;;;;5074784;28;20031;-50
2024/02/23 04:44:05;;;;;;;4.25;0.50;;;4.40;99.90;;;;;;5071279;28;20017;-53
2024/02/23 04:46:31;;;;;;;1.63;0.57;;;4.40;99.90;;;;;;5070985;28;20028;-50
2024/02/23 04:48:57;;;;;;;1.98;0.40;;;4.40;99.90;;;;;;5072952;28;20641;-52
2024/02/23 04:51:23;;;;;;;2.30;0.22;;;4.50;99.90;;;;;;5072117;28;20024;-51
2024/02/23 04:53:49;;;;;;;1.13;0.30;;;4.50;99.90;;;;;;5070383;28;20462;-50
2024/02/23 04:56:15;;;;;;;3.92;0.70;;;4.40;99.90;;;;;;5076358;28;20119;-50
2024/02/23 04:58:42;;;;;;;2.10;0.60;;;4.40;99.90;;;;;;5069904;28;20041;-50
2024/02/23 05:01:08;;;;;;;0.73;0.32;;;4.40;99.90;;;;;;5076251;28;20035;-50
2024/02/23 05:03:34;;;;;;;4.90;0.55;;;4.30;99.90;;;;;;5072064;28;20037;-50
2024/02/23 05:05:59;;;;;;;6.13;0.50;;;4.20;99.90;;;;;;5066942;28;20027;-50
2024/02/23 05:08:27;;;;;;;0.82;0.32;;;4.20;99.90;;;;;;5069905;28;20781;-52
2024/02/23 05:10:52;;;;;;;6.03;0.35;;;4.10;99.90;;;;;;5074330;28;20459;-53
2024/02/23 05:13:18;;;;;;;3.20;0.57;;;4.20;99.90;;;;;;5069348;28;20054;-54
2024/02/23 05:15:43;;;;;;;4.35;0.55;;;4.10;99.90;;;;;;5068641;28;20514;-50
2024/02/23 05:18:09;;;;;;;3.45;0.65;;;4.20;99.90;;;;;;5065792;28;20467;-52
2024/02/23 05:20:35;;;;;;;2.33;0.40;;;4.20;99.90;;;;;;5073433;28;20482;-50
2024/02/23 05:23:00;;;;;;;2.45;0.90;;;4.20;99.90;;;;;;5073497;28;20051;-52
2024/02/23 05:25:26;;;;;;;1.83;0.40;;;4.20;99.90;;;;;;5070976;28;20036;-54
2024/02/23 05:27:52;;;;;;;0.30;0.20;;;4.20;99.90;;;;;;5070875;28;20047;-52
2024/02/23 05:30:18;;;;;;;2.50;0.50;;;4.20;99.90;;;;;;5073171;28;20486;-52
2024/02/23 05:32:43;;;;;;;1.75;0.65;;;4.20;99.90;;;;;;5073491;28;20421;-53
2024/02/23 05:35:09;;;;;;;1.77;0.50;;;4.10;99.90;;;;;;5071068;28;20028;-50
2024/02/23 05:37:35;;;;;;;0.82;0.35;;;4.00;99.90;;;;;;5072665;28;20390;-51
2024/02/23 05:40:04;;;;;;;1.95;0.40;;;3.90;99.90;;;;;;5074791;28;20036;-49
2024/02/23 05:42:29;;;;;;;2.50;0.55;;;3.70;99.90;;;;;;5072048;28;20024;-50
2024/02/23 05:44:55;;;;;;;4.40;0.52;;;3.60;99.90;;;;;;5071637;28;20031;-51
2024/02/23 05:47:21;;;;;;;1.75;0.40;;;3.50;99.90;;;;;;5072668;28;20033;-52
2024/02/23 05:49:47;;;;;;;6.55;0.77;;;3.50;99.90;;;;;;5075876;28;20020;-52
2024/02/23 05:52:12;;;;;;;2.25;0.60;;;3.40;99.90;;;;;;5072886;28;20114;-53
2024/02/23 05:54:38;;;;;;;7.50;0.60;;;3.30;99.90;;;;;;5074207;28;20479;-50
2024/02/23 05:57:04;;;;;;;6.55;0.73;;;3.20;99.90;;;;;;5075025;28;20041;-52
2024/02/23 05:59:30;;;;;;;4.05;0.77;;;3.10;99.90;;;;;;5071750;28;20025;-50
2024/02/23 06:01:58;;;;;;;6.38;0.77;;;3.00;99.90;;;;;;5073075;28;20029;-53
2024/02/23 06:04:24;;;;;;;5.65;1.42;;;3.00;99.90;;;;;;5070738;28;20036;-52
2024/02/23 06:06:50;;;;;;;2.47;0.70;;;2.90;99.90;;;;;;5077689;28;20134;-50
2024/02/23 06:09:16;;;;;;;5.88;1.17;;;2.90;99.90;;;;;;5071657;28;20020;-53
2024/02/23 06:11:41;;;;;;;5.03;1.55;;;2.90;99.90;;;;;;5070000;28;20032;-55
2024/02/23 06:14:08;;;;;;;4.50;1.25;;;2.90;99.90;;;;;;5074378;28;20430;-55
2024/02/23 06:16:33;;;;;;;1.73;0.65;;;2.80;99.90;;;;;;5069686;28;20028;-50
2024/02/23 06:18:59;;;;;;;1.85;0.40;;;2.80;99.90;;;;;;5071205;28;20093;-55
2024/02/23 06:21:25;;;;;;;7.63;0.85;;;2.80;99.90;;;;;;5069820;28;20040;-52
2024/02/23 06:23:50;;;;;;;3.45;0.60;;;2.70;99.90;;;;;;5072588;28;20013;-51
2024/02/23 06:26:16;;;;;;;1.10;0.38;;;2.70;99.90;;;;;;5072032;28;20021;-51
2024/02/23 06:28:42;;;;;;;1.77;0.40;;;2.70;99.90;;;;;;5072202;28;20033;-50
2024/02/23 06:31:09;;;;;;;8.18;1.20;;;2.80;99.90;;;;;;5070311;28;20028;-50
2024/02/23 06:33:35;;;;;;;2.83;1.10;;;2.90;99.90;;;;;;5053419;28;20107;-53
2024/02/23 06:36:00;;;;;;;2.13;0.55;;;2.90;99.90;;;;;;5071674;28;20021;-53
2024/02/23 06:38:26;;;;;;;3.00;0.32;;;3.00;99.90;;;;;;5072482;28;20096;-50
2024/02/23 06:40:52;;;;;;;9.43;0.60;;;3.00;99.90;;;;;;5070139;28;20367;-52
2024/02/23 06:43:18;;;;;;;3.55;0.55;;;3.10;99.90;;;;;;5073072;28;20134;-52
2024/02/23 06:45:44;;;;;;;4.47;1.20;;;3.20;99.90;;;;;;5074705;28;20519;-52
2024/02/23 06:48:10;;;;;;;2.60;0.80;;;3.30;99.90;;;;;;5076552;28;20036;-52
2024/02/23 06:50:35;;;;;;;1.63;0.50;;;3.40;99.90;;;;;;5070345;28;20035;-55
2024/02/23 06:53:02;;;;;;;2.83;0.50;;;3.50;99.90;;;;;;5072036;28;20021;-50
2024/02/23 06:55:28;;;;;;;6.22;0.60;;;3.60;99.90;;;;;;5070051;28;20025;-53
2024/02/23 06:57:54;;;;;;;2.90;0.75;;;3.70;99.90;;;;;;5071178;28;20052;-51
2024/02/23 07:00:21;;;;;;;2.58;0.63;;;3.90;99.90;;;;;;5074953;28;20025;-54
2024/02/23 07:02:47;;;;;;;2.83;0.60;;;3.90;99.90;;;;;;5069339;28;20112;-54
2024/02/23 07:05:13;;;;;;;5.93;0.82;;;4.00;99.90;;;;;;5068126;28;20111;-51
2024/02/23 07:07:40;;;;;;;5.45;0.75;;;4.10;99.90;;;;;;5067613;28;20550;-53
2024/02/23 07:10:07;;;;;;;4.88;0.80;;;4.20;99.90;;;;;;5072035;28;20052;-53
2024/02/23 07:12:32;;;;;;;4.90;0.70;;;4.30;99.90;;;;;;5069632;28;20028;-55
2024/02/23 07:14:58;;;;;;;6.35;0.60;;;4.40;99.90;;;;;;5072435;28;20025;-51
2024/02/23 07:17:24;;;;;;;7.38;0.90;;;4.40;99.90;;;;;;5071446;28;20414;-53
2024/02/23 07:19:51;;;;;;;7.00;0.95;;;4.40;99.90;;;;;;5071061;28;20074;-52
2024/02/23 07:22:18;;;;;;;2.78;0.82;;;4.50;99.90;;;;;;5077094;28;20110;-53
2024/02/23 07:24:44;;;;;;;4.13;0.40;;;4.50;99.90;;;;;;5051685;28;20060;-54
2024/02/23 07:27:09;;;;;;;5.65;0.80;;;4.50;99.90;;;;;;5070242;28;20052;-51
2024/02/23 07:29:35;;;;;;;6.75;0.93;;;4.70;99.90;;;;;;5070168;28;20024;-54
2024/02/23 07:32:01;;;;;;;3.38;0.80;;;4.80;99.90;;;;;;5070656;28;20032;-52
2024/02/23 07:34:27;;;;;;;3.38;0.90;;;5.00;99.90;;;;;;5070985;28;20021;-53
2024/02/23 07:36:53;;;;;;;12.10;0.95;;;5.20;99.90;;;;;;5068816;28;20028;-51
2024/02/23 07:39:20;;;;;;;4.38;0.68;;;5.30;99.90;;;;;;5067616;28;20115;-54
2024/02/23 07:41:45;;;;;;;6.43;0.85;;;5.40;99.90;;;;;;5069744;28;20032;-54
2024/02/23 07:44:11;;;;;;;4.25;0.93;;;5.50;99.90;;;;;;5071198;28;20655;-51
2024/02/23 07:46:37;;;;;;;5.22;1.05;;;5.70;99.90;;;;;;5070603;28;20040;-54
2024/02/23 07:49:04;;;;;;;3.13;0.47;;;5.80;99.90;;;;;;5069610;28;20470;-54
2024/02/23 07:51:29;;;;;;;3.45;1.05;;;5.90;99.90;;;;;;5066626;28;20035;-50
2024/02/23 07:53:55;;;;;;;2.05;0.50;;;5.90;99.90;;;;;;5070851;28;20091;-51
2024/02/23 07:56:20;;;;;;;5.60;1.23;;;5.90;99.90;;;;;;5073051;28;20060;-52
2024/02/23 07:58:46;;;;;;;3.30;0.75;;;5.90;99.90;;;;;;5072788;28;20028;-54
2024/02/23 08:01:14;;;;;;;5.93;1.13;;;6.00;99.90;;;;;;5071286;28;20823;-50
2024/02/23 08:03:40;;;;;;;4.47;0.65;;;6.00;99.90;;;;;;5076432;28;20063;-55
2024/02/23 08:06:06;;;;;;;4.03;1.45;;;6.10;99.90;;;;;;5068643;28;20082;-52
2024/02/23 08:08:34;;;;;;;8.73;1.02;;;6.10;99.90;;;;;;5070394;28;20029;-51
2024/02/23 08:11:01;;;;;;;6.80;0.80;;;6.30;99.90;;;;;;5064398;28;20082;-53
2024/02/23 08:13:27;;;;;;;3.03;0.80;;;6.50;99.90;;;;;;5056769;28;20035;-56
2024/02/23 08:15:52;;;;;;;7.60;0.70;;;6.60;99.90;;;;;;5061802;28;20036;-52
2024/02/23 08:18:18;;;;;;;4.35;0.70;;;6.70;99.90;;;;;;5060536;28;20901;-54
2024/02/23 08:20:43;;;;;;;8.43;0.82;;;6.80;99.90;;;;;;5060371;28;20033;-54
2024/02/23 08:23:09;;;;;;;2.70;0.95;;;6.80;99.90;;;;;;5061693;28;20726;-55
2024/02/23 08:25:35;;;;;;;2.45;0.90;;;6.80;99.90;;;;;;5061813;28;20482;-52
2024/02/23 08:28:01;;;;;;;5.32;0.90;;;6.90;99.90;;;;;;5060054;28;20029;-51
2024/02/23 08:30:27;;;;;;;3.28;0.60;;;6.90;99.90;;;;;;5061334;28;20036;-51
2024/02/23 08:32:52;;;;;;;3.65;0.80;;;7.00;99.90;;;;;;5061341;28;20074;-50
2024/02/23 08:35:18;;;;;;;5.10;0.93;;;6.90;99.90;;;;;;5060431;28;20111;-51
2024/02/23 08:37:44;;;;;;;4.75;1.10;;;6.90;99.90;;;;;;5060510;28;20127;-54
2024/02/23 08:40:10;;;;;;;4.60;0.77;;;6.90;99.90;;;;;;5061353;28;20020;-52
2024/02/23 08:42:36;;;;;;;2.92;0.85;;;6.90;99.90;;;;;;5060238;28;20094;-52
2024/02/23 08:45:02;;;;;;;5.43;1.00;;;7.00;99.90;;;;;;5061374;28;20120;-54
2024/02/23 08:47:31;;;;;;;6.20;1.30;;;6.90;99.90;;;;;;5059732;28;20039;-52
2024/02/23 08:49:57;;;;;;;5.80;1.02;;;6.90;99.90;;;;;;5061033;28;20627;-53
2024/02/23 08:52:23;;;;;;;3.28;0.60;;;6.90;99.90;;;;;;5062294;28;20050;-55
2024/02/23 08:54:48;;;;;;;2.85;0.75;;;6.80;99.90;;;;;;5065600;28;20029;-54
2024/02/23 08:57:17;;;;;;;5.43;2.13;;;6.70;99.90;;;;;;5064890;28;20033;-50
2024/02/23 08:59:43;;;;;;;7.28;0.98;;;6.80;99.90;;;;;;5064404;28;20039;-49
2024/02/23 09:02:10;;;;;;;2.83;0.88;;;6.60;99.90;;;;;;5064282;28;20036;-51
2024/02/23 09:04:35;;;;;;;1.27;0.40;;;6.70;99.90;;;;;;5065176;28;20067;-54
2024/02/23 09:07:01;;;;;;;9.25;2.97;;;6.70;99.90;;;;;;5059956;28;20060;-51
2024/02/23 09:09:27;;;;;;;6.38;1.88;;;6.70;99.90;;;;;;5064078;28;20158;-50
2024/02/23 09:11:52;;;;;;;6.05;1.73;;;6.70;99.90;;;;;;5059886;28;20025;-54
2024/02/23 09:14:18;;;;;;;10.05;3.53;;;6.80;99.90;;;;;;5065349;28;20556;-52
2024/02/23 09:16:45;;;;;;;22.27;7.47;;;6.70;99.90;;;;;;5064411;28;20051;-54
2024/02/23 09:19:12;;;;;;;15.88;4.05;;;6.70;99.90;;;;;;5066199;28;20025;-50
2024/02/23 09:21:37;;;;;;;4.05;1.70;;;6.70;99.90;;;;;;5062582;28;20056;-51
2024/02/23 09:24:03;;;;;;;14.25;4.35;;;6.70;99.90;;;;;;5063571;28;20033;-52
2024/02/23 09:26:29;;;;;;;10.45;3.00;;;6.70;99.90;;;;;;5062840;28;20028;-51
2024/02/23 09:28:55;;;;;;;28.55;8.52;;;6.70;99.90;;;;;;5063610;28;20142;-55
2024/02/23 09:31:20;;;;;;;12.43;3.90;;;6.70;99.90;;;;;;5063891;28;20024;-55
2024/02/23 09:33:46;;;;;;;11.65;3.97;;;6.70;99.90;;;;;;5062397;28;20911;-52
2024/02/23 09:36:12;;;;;;;10.10;2.75;;;6.70;99.90;;;;;;5063229;28;20055;-54
2024/02/23 09:38:38;;;;;;;10.07;3.10;;;6.70;99.90;;;;;;5061581;28;20459;-55
2024/02/23 09:41:04;;;;;;;7.47;2.20;;;6.70;99.90;;;;;;5062221;28;20044;-51
2024/02/23 09:43:32;;;;;;;13.50;3.95;;;6.70;99.90;;;;;;5064461;28;20151;-53
2024/02/23 09:45:59;;;;;;;29.33;9.40;;;6.80;99.90;;;;;;5064183;28;20032;-54
2024/02/23 09:48:25;;;;;;;18.65;7.05;;;6.80;99.90;;;;;;5062910;28;20115;-51
2024/02/23 09:50:52;;;;;;;18.42;6.20;;;6.80;99.90;;;;;;5064687;28;20460;-51
2024/02/23 09:53:20;;;;;;;15.57;4.00;;;6.90;99.90;;;;;;5048257;28;20017;-56
2024/02/23 09:55:48;;;;;;;12.18;3.78;;;7.10;99.90;;;;;;5062633;28;20465;-53
2024/02/23 09:58:16;;;;;;;13.95;4.10;;;7.10;99.90;;;;;;5065573;28;20032;-59
2024/02/23 10:00:43;;;;;;;19.48;5.00;;;7.30;99.90;;;;;;5063715;28;20154;-51
2024/02/23 10:03:09;;;;;;;10.20;2.00;;;7.40;99.90;;;;;;5063336;28;20556;-51
2024/02/23 10:05:34;;;;;;;10.48;3.50;;;7.40;99.90;;;;;;5062887;28;20033;-54
2024/02/23 10:08:00;;;;;;;9.13;2.90;;;7.40;99.90;;;;;;5059445;28;20028;-54
2024/02/23 10:10:35;;;;;;;14.95;2.25;;;7.50;99.90;;;;;;5044032;28;20033;-55
2024/02/23 10:13:01;;;;;;;5.97;1.95;;;7.50;99.90;;;;;;5062890;28;20043;-51
2024/02/23 10:15:30;;;;;;;4.75;1.15;;;7.60;99.90;;;;;;5064558;28;20052;-50
2024/02/23 10:17:56;;;;;;;4.90;0.82;;;7.80;99.90;;;;;;5063177;28;20070;-54
2024/02/23 10:20:22;;;;;;;3.08;1.10;;;7.90;99.90;;;;;;5063841;28;20037;-50
2024/02/23 10:22:48;;;;;;;6.38;1.92;;;8.10;99.90;;;;;;5063938;28;20041;-53
2024/02/23 10:25:14;;;;;;;8.68;2.58;;;8.10;99.90;;;;;;5063360;28;20035;-50
2024/02/23 10:27:42;;;;;;;11.10;3.17;;;8.10;99.90;;;;;;5062403;28;20134;-55
2024/02/23 10:30:11;;;;;;;16.05;4.78;;;8.00;99.90;;;;;;5063816;28;20060;-54
2024/02/23 10:32:40;;;;;;;19.88;5.15;;;8.00;99.90;;;;;;5063252;28;20017;-52
2024/02/23 10:35:13;;;;;;;21.08;6.28;;;8.00;99.90;;;;;;5062638;28;20025;-53
2024/02/23 10:37:42;;;;;;;18.25;6.00;;;8.10;99.90;;;;;;5062156;28;20036;-50
2024/02/23 10:40:11;;;;;;;9.35;2.10;;;8.20;99.90;;;;;;5063569;28;20690;-54
2024/02/23 10:42:38;;;;;;;5.80;1.20;;;8.10;99.90;;;;;;5062203;28;20028;-54
2024/02/23 10:45:06;;;;;;;34.42;9.48;;;8.20;99.90;;;;;;5062990;28;20045;-55
2024/02/23 10:47:33;;;;;;;13.35;4.18;;;8.70;99.90;;;;;;5043708;28;20036;-60
2024/02/23 10:50:01;;;;;;;13.48;3.75;;;9.20;99.90;;;;;;5062146;28;20035;-55
2024/02/23 10:52:27;;;;;;;17.58;5.38;;;9.60;99.90;;;;;;5059482;28;20033;-55
2024/02/23 10:54:54;;;;;;;25.60;7.13;;;9.80;99.90;;;;;;5062531;28;20020;-54
2024/02/23 10:57:19;;;;;;;26.45;8.38;;;10.00;99.90;;;;;;5061886;28;20284;-54
2024/02/23 10:59:46;;;;;;;34.38;11.02;;;10.00;99.90;;;;;;5062457;28;20041;-51
2024/02/23 11:02:17;;;;;;;4.45;1.20;;;9.90;99.90;;;;;;5060891;28;20063;-50
2024/02/23 11:04:50;;;;;;;17.55;5.80;;;9.90;99.90;;;;;;5062193;28;20029;-51
2024/02/23 11:07:18;;;;;;;30.20;9.30;;;9.90;99.90;;;;;;5060499;28;20024;-50
2024/02/23 11:09:58;;;;;;;23.30;7.93;;;10.00;99.90;;;;;;5062696;28;20508;-52
2024/02/23 11:12:29;;;;;;;52.50;16.75;;;10.00;99.90;;;;;;5061454;28;20110;-53
2024/02/23 11:14:59;;;;;;;5.38;2.00;;;10.00;99.90;;;;;;5062099;28;20025;-50
2024/02/23 11:17:28;;;;;;;19.80;6.82;;;10.20;99.90;;;;;;5061468;28;20025;-53
2024/02/23 11:19:55;;;;;;;24.17;6.45;;;10.00;99.90;;;;;;5056798;28;21346;-55
2024/02/23 11:22:30;;;;;;;16.50;5.35;;;9.80;99.90;;;;;;5062752;28;20107;-51
2024/02/23 11:25:01;;;;;;;58.20;15.95;;;9.80;99.90;;;;;;5060438;28;20025;-52
2024/02/23 11:27:31;;;;;;;22.63;8.02;;;9.50;99.90;;;;;;5058692;28;20028;-54
2024/02/23 11:30:03;;;;;;;27.35;8.18;;;9.50;99.90;;;;;;5060681;28;20040;-53
2024/02/23 11:32:47;;;;;;;32.67;9.57;;;9.30;99.90;;;;;;5061548;28;20032;-52
2024/02/23 11:35:14;;;;;;;9.70;2.45;;;9.60;99.90;;;;;;5061023;28;20351;-54
2024/02/23 11:38:00;;;;;;;15.55;5.40;;;9.80;99.90;;;;;;5060376;28;20028;-51
2024/02/23 11:40:26;;;;;;;3.95;1.45;;;10.00;99.90;;;;;;5061477;28;20032;-53
2024/02/23 11:42:52;;;;;;;23.10;7.65;;;10.30;99.90;;;;;;5060182;28;20036;-52
2024/02/23 11:45:17;;;;;;;23.95;7.53;;;10.50;99.90;;;;;;5061747;28;20037;-51
2024/02/23 11:47:43;;;;;;;14.48;4.95;;;10.70;99.90;;;;;;5061857;28;20028;-51
2024/02/23 11:50:10;;;;;;;33.13;9.68;;;10.60;99.90;;;;;;5064036;28;20146;-49
2024/02/23 11:52:40;;;;;;;14.45;3.55;;;10.20;99.90;;;;;;5062793;28;20479;-50
2024/02/23 11:55:06;;;;;;;8.55;2.95;;;10.10;99.90;;;;;;5064658;28;21490;-53
2024/02/23 11:57:33;;;;;;;10.68;2.65;;;10.20;99.90;;;;;;5063848;28;20442;-49
2024/02/23 12:00:02;;;;;;;19.05;5.05;;;9.80;99.90;;;;;;5064471;28;20482;-52
2024/02/23 12:02:27;;;;;;;13.30;4.03;;;9.90;99.90;;;;;;5063479;28;20033;-50
2024/02/23 12:04:53;;;;;;;53.72;13.88;;;9.90;99.90;;;;;;5063805;28;20033;-49
2024/02/23 12:07:20;;;;;;;44.88;12.55;;;9.70;99.90;;;;;;5063139;28;20040;-49
2024/02/23 12:09:46;;;;;;;8.25;1.85;;;9.70;99.90;;;;;;5063044;28;20033;-51
2024/02/23 12:12:12;;;;;;;4.10;1.08;;;9.80;99.90;;;;;;5062662;28;20016;-52
2024/02/23 12:14:39;;;;;;;24.63;5.85;;;9.80;99.90;;;;;;5062736;28;20029;-52
2024/02/23 12:17:07;;;;;;;17.38;6.35;;;9.70;99.90;;;;;;5062030;28;20060;-50
2024/02/23 12:19:33;;;;;;;5.72;2.58;;;9.40;99.90;;;;;;5062340;28;20040;-52
2024/02/23 12:22:01;;;;;;;4.20;0.70;;;9.30;99.90;;;;;;5062202;28;20025;-49
2024/02/23 12:24:28;;;;;;;15.80;4.80;;;9.30;99.90;;;;;;5063589;28;20643;-50
2024/02/23 12:26:56;;;;;;;2.22;0.70;;;9.20;99.90;;;;;;5062193;28;20051;-49
2024/02/23 12:29:23;;;;;;;5.65;1.90;;;9.30;99.90;;;;;;5065722;28;20036;-49
2024/02/23 12:31:48;;;;;;;11.88;4.05;;;9.20;99.90;;;;;;5066689;28;20028;-50
2024/02/23 12:34:14;;;;;;;18.48;4.07;;;9.00;99.90;;;;;;5066850;28;20032;-50
2024/02/23 12:36:40;;;;;;;28.10;7.68;;;8.80;99.90;;;;;;5066740;28;20017;-49
2024/02/23 12:39:05;;;;;;;15.25;4.25;;;8.70;99.90;;;;;;5066589;28;20032;-51
2024/02/23 12:41:31;;;;;;;13.77;3.50;;;8.70;99.90;;;;;;5065370;28;20112;-50
2024/02/23 12:43:57;;;;;;;22.15;4.43;;;8.80;99.90;;;;;;5066220;28;20060;-52
2024/02/23 12:46:26;;;;;;;17.75;7.28;;;8.80;99.90;;;;;;5066889;28;20066;-53
2024/02/23 12:48:52;;;;;;;10.85;3.22;;;8.90;99.90;;;;;;5065436;28;20036;-49
2024/02/23 12:51:18;;;;;;;12.23;3.85;;;8.90;99.90;;;;;;5066929;28;20017;-51